Girolata — FPOD — position and weather

sailwx.info

Track history (hours):
 
Tides and Currents Weather Stations Pressure Air Temp Water Temp Dewpoint Dewpoint Depression Visibility Wind Speed Wind Dir Waves Ship Positions

Girolata

Last reported at 2018-Aug-14 23:48 UTC. Time now 2018-Aug-15 12:36 UTC.
Position N 42°20' E 007°17'.

Length 177 m; beam 27 m.

Type: Passenger vessel. MMSI: 226245000.

Date/timePositionNaut miles runAvg speedWind from/ knotsBaromVisibWave heightAir tempDewpointWater temp
2018-Aug-14 23:48N 42°20' E 007°17'10217.2
2018-Aug-14 17:52N 43°12' E 005°18'513.4
2018-Aug-14 17:30N 43°17' E 005°19'2 0.2
2018-Aug-14 05:25N 43°19' E 005°22'0 0.0
2018-Aug-14 04:58N 43°19' E 005°22'0 0.9
2018-Aug-14 04:30N 43°18' E 005°22'510.1
2018-Aug-14 03:59N 43°14' E 005°18'14216.6
2018-Aug-13 19:23N 42°01' E 008°04'11 0.7
2018-Aug-13 02:59N 41°55' E 008°17'816.6
2018-Aug-13 02:30N 41°60' E 008°08'916.7
2018-Aug-13 01:57N 42°04' E 007°57'716.4
2018-Aug-13 01:30N 42°08' E 007°49'816.4
2018-Aug-13 01:00N 42°11' E 007°39'816.5
2018-Aug-13 00:30N 42°16' E 007°29'816.6
2018-Aug-13 00:00N 42°19' E 007°19'816.5
2018-Aug-12 23:30N 42°23' E 007°09'916.5
2018-Aug-12 22:57N 42°27' E 006°58'716.4
2018-Aug-12 22:30N 42°31' E 006°49'916.7
2018-Aug-12 21:59N 42°36' E 006°40'816.5
2018-Aug-12 21:30N 42°40' E 006°31'916.7
2018-Aug-12 20:58N 42°44' E 006°20'5316.3
2018-Aug-12 17:42N 43°13' E 005°19'315.7
2018-Aug-12 17:30N 43°16' E 005°20'3 3.2
2018-Aug-12 16:28N 43°19' E 005°22'0 0.0
2018-Aug-12 12:49N 43°19' E 005°22'0 0.0
2018-Aug-12 12:19N 43°19' E 005°22'0 0.0
2018-Aug-12 11:49N 43°19' E 005°22'0 0.0
2018-Aug-12 11:22N 43°19' E 005°22'0 0.0
2018-Aug-12 10:58N 43°19' E 005°22'0 0.0
2018-Aug-12 10:22N 43°19' E 005°22'0 0.0
2018-Aug-12 09:55N 43°19' E 005°22'0 0.0
2018-Aug-12 09:25N 43°19' E 005°22'0 0.0
2018-Aug-12 08:55N 43°19' E 005°22'0 0.0
2018-Aug-12 08:28N 43°19' E 005°22'0 0.0
2018-Aug-12 07:58N 43°19' E 005°22'0 0.0
2018-Aug-12 07:25N 43°19' E 005°22'0 0.0
2018-Aug-12 05:36N 43°19' E 005°22'0 0.0
2018-Aug-12 05:29N 43°19' E 005°22'1 1.6
2018-Aug-12 05:00N 43°18' E 005°22'510.8
2018-Aug-12 04:31N 43°13' E 005°18'2514.6
2018-Aug-12 02:46N 42°59' E 005°47'3115.8
2018-Aug-12 00:47N 42°43' E 006°24'1015.8
2018-Aug-12 00:10N 42°39' E 006°35'315.8
2018-Aug-12 00:00N 42°37' E 006°38'815.8
2018-Aug-11 23:30N 42°33' E 006°47'816.2
2018-Aug-11 23:00N 42°29' E 006°57'816.4
2018-Aug-11 22:30N 42°25' E 007°07'816.3
2018-Aug-11 21:59N 42°21' E 007°17'816.0
2018-Aug-11 21:31N 42°17' E 007°26'815.9
2018-Aug-11 21:00N 42°13' E 007°35'815.7
2018-Aug-11 20:30N 42°10' E 007°45'815.7
2018-Aug-11 20:00N 42°06' E 007°54'815.6
2018-Aug-11 19:30N 42°02' E 008°03'1215.7
2018-Aug-11 18:47N 41°56' E 008°16'15 0.8
2018-Aug-11 01:37N 42°03' E 007°59'218.2
2018-Aug-11 01:30N 42°04' E 007°57'918.2
2018-Aug-11 00:59N 42°09' E 007°46'918.1
2018-Aug-11 00:31N 42°13' E 007°35'918.3
2018-Aug-11 00:01N 42°17' E 007°25'918.2
2018-Aug-10 23:31N 42°22' E 007°14'918.1
2018-Aug-10 23:01N 42°26' E 007°03'918.1
2018-Aug-10 22:31N 42°31' E 006°53'918.1
2018-Aug-10 22:00N 42°35' E 006°42'7118.1
2018-Aug-10 18:04N 43°12' E 005°19'115.9
2018-Aug-10 18:01N 43°13' E 005°18'510.8
2018-Aug-10 17:30N 43°18' E 005°22'1 0.2
2018-Aug-10 14:35N 43°19' E 005°22'0 0.0
2018-Aug-10 14:26N 43°19' E 005°22'0 0.0
2018-Aug-10 13:59N 43°19' E 005°22'0 0.0
2018-Aug-10 13:26N 43°19' E 005°22'0 0.0
2018-Aug-10 12:56N 43°19' E 005°22'0 0.0
2018-Aug-10 12:14N 43°19' E 005°22'0 0.0
2018-Aug-10 11:05N 43°19' E 005°22'0 0.0
2018-Aug-10 10:53N 43°19' E 005°22'0 0.0
2018-Aug-10 08:44N 43°19' E 005°22'0 0.0
2018-Aug-10 08:26N 43°19' E 005°22'0 0.0
2018-Aug-10 07:59N 43°19' E 005°22'0 0.0
2018-Aug-10 06:53N 43°19' E 005°22'0 0.0
2018-Aug-10 06:29N 43°19' E 005°22'0 0.0
2018-Aug-10 05:50N 43°19' E 005°22'0 0.0
2018-Aug-10 05:23N 43°19' E 005°22'0 0.0
2018-Aug-10 05:00N 43°19' E 005°22'1 1.4
2018-Aug-10 04:30N 43°18' E 005°22'510.9
2018-Aug-10 04:00N 43°13' E 005°18'8016.4
2018-Aug-09 23:06N 42°31' E 006°51'217.2
2018-Aug-09 23:00N 42°30' E 006°53'1517.4
2018-Aug-09 22:09N 42°23' E 007°10'317.5
2018-Aug-09 22:00N 42°21' E 007°14'42 1.7
2018-Aug-08 21:09N 42°41' E 006°23'418.3
2018-Aug-08 20:57N 42°43' E 006°19'1018.5
2018-Aug-08 20:26N 42°47' E 006°07'4317.3
2018-Aug-08 17:56N 43°11' E 005°18'614.1
2018-Aug-08 17:30N 43°17' E 005°20'2 2.1
2018-Aug-08 16:30N 43°19' E 005°22'0 0.0
2018-Aug-08 15:00N 43°19' E 005°22'0 0.0
2018-Aug-08 11:48N 43°19' E 005°22'0 0.0
2018-Aug-08 11:06N 43°19' E 005°22'0 0.0
2018-Aug-08 10:36N 43°19' E 005°22'0 0.0
2018-Aug-08 10:30N 43°19' E 005°22'0 0.0
2018-Aug-08 09:54N 43°19' E 005°22'0 0.0
2018-Aug-08 08:12N 43°19' E 005°22'0 0.0
2018-Aug-08 07:54N 43°19' E 005°22'0 0.0
2018-Aug-08 07:30N 43°19' E 005°22'0 0.0
2018-Aug-08 06:54N 43°19' E 005°22'0 0.0
2018-Aug-08 06:30N 43°19' E 005°22'0 0.0
2018-Aug-08 06:00N 43°19' E 005°22'0 0.0
2018-Aug-08 05:30N 43°19' E 005°22'0 0.0
2018-Aug-08 05:01N 43°19' E 005°22'0 1.0
2018-Aug-08 04:31N 43°18' E 005°22'5 9.9
2018-Aug-08 04:00N 43°14' E 005°18'7816.4
2018-Aug-07 23:14N 42°32' E 006°48'416.5
2018-Aug-07 23:00N 42°30' E 006°53'816.6
2018-Aug-07 22:30N 42°26' E 007°03'816.7
2018-Aug-07 22:00N 42°22' E 007°12'816.8
2018-Aug-07 21:30N 42°18' E 007°22'916.7
2018-Aug-07 20:59N 42°14' E 007°32'816.7
2018-Aug-07 20:30N 42°09' E 007°42'48 2.8
2018-Aug-07 03:35N 41°52' E 008°42'118.1
2018-Aug-07 03:30N 41°51' E 008°40'916.8
2018-Aug-07 02:59N 41°51' E 008°28'2318.7
2018-Aug-07 01:45N 42°02' E 008°02'518.4
2018-Aug-07 01:30N 42°04' E 007°56'918.6
2018-Aug-07 01:00N 42°09' E 007°45'918.5
2018-Aug-07 00:30N 42°14' E 007°34'3018.4
2018-Aug-06 22:51N 42°28' E 006°59'1118.1
2018-Aug-06 22:16N 42°34' E 006°46'518.2
2018-Aug-06 22:00N 42°36' E 006°41'1018.2
2018-Aug-06 21:27N 42°41' E 006°29'918.6
2018-Aug-06 20:59N 42°45' E 006°18'918.5
2018-Aug-06 20:31N 42°50' E 006°08'1118.2
2018-Aug-06 19:54N 42°55' E 005°55'3118.3
2018-Aug-06 18:13N 43°11' E 005°19'316.1
2018-Aug-06 18:00N 43°15' E 005°19'5 9.2
2018-Aug-06 17:30N 43°19' E 005°22'0 0.3
2018-Aug-06 16:58N 43°19' E 005°22'0 0.0
2018-Aug-06 16:28N 43°19' E 005°22'0 0.0
2018-Aug-06 11:04N 43°19' E 005°22'0 0.0
2018-Aug-06 10:58N 43°19' E 005°22'0 0.0
2018-Aug-06 09:01N 43°19' E 005°22'0 0.0
2018-Aug-06 08:58N 43°19' E 005°22'0 0.0
2018-Aug-06 06:55N 43°19' E 005°22'0 0.0
2018-Aug-06 06:25N 43°19' E 005°22'0 0.0
2018-Aug-06 05:55N 43°19' E 005°22'0 0.0
2018-Aug-06 05:25N 43°19' E 005°22'0 0.0
2018-Aug-06 05:00N 43°19' E 005°22'1 3.0
2018-Aug-06 04:30N 43°18' E 005°21'611.6
2018-Aug-06 04:00N 43°12' E 005°19'5716.4
2018-Aug-06 00:30N 42°42' E 006°26'816.7
2018-Aug-06 00:00N 42°37' E 006°36'816.4
2018-Aug-05 23:30N 42°33' E 006°45'3216.3
2018-Aug-05 21:33N 42°19' E 007°24'116.8
2018-Aug-05 21:27N 42°18' E 007°25'18 0.9
2018-Aug-05 02:01N 42°08' E 007°46'016.1
2018-Aug-05 02:00N 42°09' E 007°46'815.7
2018-Aug-05 01:30N 42°12' E 007°37'815.7
2018-Aug-05 01:00N 42°16' E 007°27'815.6
2018-Aug-05 00:30N 42°20' E 007°18'815.6
2018-Aug-05 00:00N 42°23' E 007°09'  
Track history (hours):
 
Tides and Currents Weather Stations Pressure Air Temp Water Temp Dewpoint Dewpoint Depression Visibility Wind Speed Wind Dir Waves Ship Positions

Girolata

Last reported at 2018-Aug-14 23:48 UTC. Time now 2018-Aug-15 12:36 UTC.
Position N 42°20' E 007°17'.

Length 177 m; beam 27 m.

Type: Passenger vessel. MMSI: 226245000.

Date/timePositionNaut miles runAvg speedWind from/ knotsBaromVisibWave heightAir tempDewpointWater temp
2018-Aug-14 23:48N 42°20' E 007°17'10217.2
2018-Aug-14 17:52N 43°12' E 005°18'513.4
2018-Aug-14 17:30N 43°17' E 005°19'2 0.2
2018-Aug-14 05:25N 43°19' E 005°22'0 0.0
2018-Aug-14 04:58N 43°19' E 005°22'0 0.9
2018-Aug-14 04:30N 43°18' E 005°22'510.1
2018-Aug-14 03:59N 43°14' E 005°18'14216.6
2018-Aug-13 19:23N 42°01' E 008°04'11 0.7
2018-Aug-13 02:59N 41°55' E 008°17'816.6
2018-Aug-13 02:30N 41°60' E 008°08'916.7
2018-Aug-13 01:57N 42°04' E 007°57'716.4
2018-Aug-13 01:30N 42°08' E 007°49'816.4
2018-Aug-13 01:00N 42°11' E 007°39'816.5
2018-Aug-13 00:30N 42°16' E 007°29'816.6
2018-Aug-13 00:00N 42°19' E 007°19'816.5
2018-Aug-12 23:30N 42°23' E 007°09'916.5
2018-Aug-12 22:57N 42°27' E 006°58'716.4
2018-Aug-12 22:30N 42°31' E 006°49'916.7
2018-Aug-12 21:59N 42°36' E 006°40'816.5
2018-Aug-12 21:30N 42°40' E 006°31'916.7
2018-Aug-12 20:58N 42°44' E 006°20'5316.3
2018-Aug-12 17:42N 43°13' E 005°19'315.7
2018-Aug-12 17:30N 43°16' E 005°20'3 3.2
2018-Aug-12 16:28N 43°19' E 005°22'0 0.0
2018-Aug-12 12:49N 43°19' E 005°22'0 0.0
2018-Aug-12 12:19N 43°19' E 005°22'0 0.0
2018-Aug-12 11:49N 43°19' E 005°22'0 0.0
2018-Aug-12 11:22N 43°19' E 005°22'0 0.0
2018-Aug-12 10:58N 43°19' E 005°22'0 0.0
2018-Aug-12 10:22N 43°19' E 005°22'0 0.0
2018-Aug-12 09:55N 43°19' E 005°22'0 0.0
2018-Aug-12 09:25N 43°19' E 005°22'0 0.0
2018-Aug-12 08:55N 43°19' E 005°22'0 0.0
2018-Aug-12 08:28N 43°19' E 005°22'0 0.0
2018-Aug-12 07:58N 43°19' E 005°22'0 0.0
2018-Aug-12 07:25N 43°19' E 005°22'0 0.0
2018-Aug-12 05:36N 43°19' E 005°22'0 0.0
2018-Aug-12 05:29N 43°19' E 005°22'1 1.6
2018-Aug-12 05:00N 43°18' E 005°22'510.8
2018-Aug-12 04:31N 43°13' E 005°18'2514.6
2018-Aug-12 02:46N 42°59' E 005°47'3115.8
2018-Aug-12 00:47N 42°43' E 006°24'1015.8
2018-Aug-12 00:10N 42°39' E 006°35'315.8
2018-Aug-12 00:00N 42°37' E 006°38'815.8
2018-Aug-11 23:30N 42°33' E 006°47'816.2
2018-Aug-11 23:00N 42°29' E 006°57'816.4
2018-Aug-11 22:30N 42°25' E 007°07'816.3
2018-Aug-11 21:59N 42°21' E 007°17'816.0
2018-Aug-11 21:31N 42°17' E 007°26'815.9
2018-Aug-11 21:00N 42°13' E 007°35'815.7
2018-Aug-11 20:30N 42°10' E 007°45'815.7
2018-Aug-11 20:00N 42°06' E 007°54'815.6
2018-Aug-11 19:30N 42°02' E 008°03'1215.7
2018-Aug-11 18:47N 41°56' E 008°16'15 0.8
2018-Aug-11 01:37N 42°03' E 007°59'218.2
2018-Aug-11 01:30N 42°04' E 007°57'918.2
2018-Aug-11 00:59N 42°09' E 007°46'918.1
2018-Aug-11 00:31N 42°13' E 007°35'918.3
2018-Aug-11 00:01N 42°17' E 007°25'918.2
2018-Aug-10 23:31N 42°22' E 007°14'918.1
2018-Aug-10 23:01N 42°26' E 007°03'918.1
2018-Aug-10 22:31N 42°31' E 006°53'918.1
2018-Aug-10 22:00N 42°35' E 006°42'7118.1
2018-Aug-10 18:04N 43°12' E 005°19'115.9
2018-Aug-10 18:01N 43°13' E 005°18'510.8
2018-Aug-10 17:30N 43°18' E 005°22'1 0.2
2018-Aug-10 14:35N 43°19' E 005°22'0 0.0
2018-Aug-10 14:26N 43°19' E 005°22'0 0.0
2018-Aug-10 13:59N 43°19' E 005°22'0 0.0
2018-Aug-10 13:26N 43°19' E 005°22'0 0.0
2018-Aug-10 12:56N 43°19' E 005°22'0 0.0
2018-Aug-10 12:14N 43°19' E 005°22'0 0.0
2018-Aug-10 11:05N 43°19' E 005°22'0 0.0
2018-Aug-10 10:53N 43°19' E 005°22'0 0.0
2018-Aug-10 08:44N 43°19' E 005°22'0 0.0
2018-Aug-10 08:26N 43°19' E 005°22'0 0.0
2018-Aug-10 07:59N 43°19' E 005°22'0 0.0
2018-Aug-10 06:53N 43°19' E 005°22'0 0.0
2018-Aug-10 06:29N 43°19' E 005°22'0 0.0
2018-Aug-10 05:50N 43°19' E 005°22'0 0.0
2018-Aug-10 05:23N 43°19' E 005°22'0 0.0
2018-Aug-10 05:00N 43°19' E 005°22'1 1.4
2018-Aug-10 04:30N 43°18' E 005°22'510.9
2018-Aug-10 04:00N 43°13' E 005°18'8016.4
2018-Aug-09 23:06N 42°31' E 006°51'217.2
2018-Aug-09 23:00N 42°30' E 006°53'1517.4
2018-Aug-09 22:09N 42°23' E 007°10'317.5
2018-Aug-09 22:00N 42°21' E 007°14'42 1.7
2018-Aug-08 21:09N 42°41' E 006°23'418.3
2018-Aug-08 20:57N 42°43' E 006°19'1018.5
2018-Aug-08 20:26N 42°47' E 006°07'4317.3
2018-Aug-08 17:56N 43°11' E 005°18'614.1
2018-Aug-08 17:30N 43°17' E 005°20'2 2.1
2018-Aug-08 16:30N 43°19' E 005°22'0 0.0
2018-Aug-08 15:00N 43°19' E 005°22'0 0.0
2018-Aug-08 11:48N 43°19' E 005°22'0 0.0
2018-Aug-08 11:06N 43°19' E 005°22'0 0.0
2018-Aug-08 10:36N 43°19' E 005°22'0 0.0
2018-Aug-08 10:30N 43°19' E 005°22'0 0.0
2018-Aug-08 09:54N 43°19' E 005°22'0 0.0
2018-Aug-08 08:12N 43°19' E 005°22'0 0.0
2018-Aug-08 07:54N 43°19' E 005°22'0 0.0
2018-Aug-08 07:30N 43°19' E 005°22'0 0.0
2018-Aug-08 06:54N 43°19' E 005°22'0 0.0
2018-Aug-08 06:30N 43°19' E 005°22'0 0.0
2018-Aug-08 06:00N 43°19' E 005°22'0 0.0
2018-Aug-08 05:30N 43°19' E 005°22'0 0.0
2018-Aug-08 05:01N 43°19' E 005°22'0 1.0
2018-Aug-08 04:31N 43°18' E 005°22'5 9.9
2018-Aug-08 04:00N 43°14' E 005°18'7816.4
2018-Aug-07 23:14N 42°32' E 006°48'416.5
2018-Aug-07 23:00N 42°30' E 006°53'816.6
2018-Aug-07 22:30N 42°26' E 007°03'816.7
2018-Aug-07 22:00N 42°22' E 007°12'816.8
2018-Aug-07 21:30N 42°18' E 007°22'916.7
2018-Aug-07 20:59N 42°14' E 007°32'816.7
2018-Aug-07 20:30N 42°09' E 007°42'48 2.8
2018-Aug-07 03:35N 41°52' E 008°42'118.1
2018-Aug-07 03:30N 41°51' E 008°40'916.8
2018-Aug-07 02:59N 41°51' E 008°28'2318.7
2018-Aug-07 01:45N 42°02' E 008°02'518.4
2018-Aug-07 01:30N 42°04' E 007°56'918.6
2018-Aug-07 01:00N 42°09' E 007°45'918.5
2018-Aug-07 00:30N 42°14' E 007°34'3018.4
2018-Aug-06 22:51N 42°28' E 006°59'1118.1
2018-Aug-06 22:16N 42°34' E 006°46'518.2
2018-Aug-06 22:00N 42°36' E 006°41'1018.2
2018-Aug-06 21:27N 42°41' E 006°29'918.6
2018-Aug-06 20:59N 42°45' E 006°18'918.5
2018-Aug-06 20:31N 42°50' E 006°08'1118.2
2018-Aug-06 19:54N 42°55' E 005°55'3118.3
2018-Aug-06 18:13N 43°11' E 005°19'316.1
2018-Aug-06 18:00N 43°15' E 005°19'5 9.2
2018-Aug-06 17:30N 43°19' E 005°22'0 0.3
2018-Aug-06 16:58N 43°19' E 005°22'0 0.0
2018-Aug-06 16:28N 43°19' E 005°22'0 0.0
2018-Aug-06 11:04N 43°19' E 005°22'0 0.0
2018-Aug-06 10:58N 43°19' E 005°22'0 0.0
2018-Aug-06 09:01N 43°19' E 005°22'0 0.0
2018-Aug-06 08:58N 43°19' E 005°22'0 0.0
2018-Aug-06 06:55N 43°19' E 005°22'0 0.0
2018-Aug-06 06:25N 43°19' E 005°22'0 0.0
2018-Aug-06 05:55N 43°19' E 005°22'0 0.0
2018-Aug-06 05:25N 43°19' E 005°22'0 0.0
2018-Aug-06 05:00N 43°19' E 005°22'1 3.0
2018-Aug-06 04:30N 43°18' E 005°21'611.6
2018-Aug-06 04:00N 43°12' E 005°19'5716.4
2018-Aug-06 00:30N 42°42' E 006°26'816.7
2018-Aug-06 00:00N 42°37' E 006°36'816.4
2018-Aug-05 23:30N 42°33' E 006°45'3216.3
2018-Aug-05 21:33N 42°19' E 007°24'116.8
2018-Aug-05 21:27N 42°18' E 007°25'18 0.9
2018-Aug-05 02:01N 42°08' E 007°46'016.1
2018-Aug-05 02:00N 42°09' E 007°46'815.7
2018-Aug-05 01:30N 42°12' E 007°37'815.7
2018-Aug-05 01:00N 42°16' E 007°27'815.6
2018-Aug-05 00:30N 42°20' E 007°18'815.6
2018-Aug-05 00:00N 42°23' E 007°09'  

Dump ship's entire track history